Time;durP1;ratioP1;P1;durP2;ratioP2;P2;SDS_P1;SDS_P2;PMS_P1;PMS_P2;Temp;Humidity;BMP_temperature;BMP_pressure;BME280_temperature;BME280_humidity;BME280_pressure;Samples;Min_cycle;Max_cycle;Signal;HPM_P1;HPM_P2
2022/07/09 00:04:02;;;;;;;8.80;2.93;;;;;;;15.74;81.16;101204.67;3590142;81;98685;-86
2022/07/09 00:09:03;;;;;;;7.80;3.45;;;;;;;15.71;81.30;101202.70;3576936;82;99174;-86
2022/07/09 00:14:05;;;;;;;7.80;3.20;;;;;;;15.67;81.53;101204.66;3517155;82;98796;-85
2022/07/09 00:19:06;;;;;;;7.80;3.43;;;;;;;15.67;81.81;101194.95;3544919;82;98638;-85
2022/07/09 00:24:07;;;;;;;7.70;3.23;;;;;;;15.69;81.84;101194.56;3556015;82;31608;-85
2022/07/09 00:29:08;;;;;;;9.78;3.50;;;;;;;15.68;81.96;101196.53;3546221;81;98997;-86
2022/07/09 00:34:09;;;;;;;7.13;3.07;;;;;;;15.68;82.13;101186.02;3494281;82;99332;-86
2022/07/09 00:39:10;;;;;;;11.53;3.70;;;;;;;15.68;82.21;101184.62;3459921;84;98887;-85
2022/07/09 00:44:11;;;;;;;10.17;3.53;;;;;;;15.67;82.34;101176.91;3481452;82;99060;-85
2022/07/09 00:49:12;;;;;;;9.70;3.40;;;;;;;15.65;82.40;101161.23;3529144;82;99149;-86
2022/07/09 00:54:14;;;;;;;6.53;2.75;;;;;;;15.66;82.50;101170.36;3548210;82;31660;-86
2022/07/09 00:59:17;;;;;;;9.00;3.27;;;;;;;15.61;82.47;101161.03;3527833;81;98818;-85
2022/07/09 01:04:18;;;;;;;6.67;3.17;;;;;;;15.59;82.61;101160.03;3563022;82;99094;-85
2022/07/09 01:09:19;;;;;;;7.15;3.00;;;;;;;15.57;82.77;101154.09;3492707;83;98858;-85
2022/07/09 01:14:20;;;;;;;6.13;3.20;;;;;;;15.55;82.61;101166.77;3515630;82;98844;-86
2022/07/09 01:19:22;;;;;;;5.77;2.93;;;;;;;15.52;82.93;101157.25;3578503;82;99226;-86
2022/07/09 01:24:24;;;;;;;8.97;3.47;;;;;;;15.50;82.84;101159.63;3539529;82;25822;-85
2022/07/09 01:29:25;;;;;;;6.20;2.50;;;;;;;15.46;82.82;101153.27;3508973;82;99508;-86
2022/07/09 01:34:26;;;;;;;7.10;2.73;;;;;;;15.38;82.90;101148.87;3580687;81;98809;-85
2022/07/09 01:39:27;;;;;;;5.33;2.57;;;;;;;15.33;82.94;101136.80;3534834;82;99006;-85
2022/07/09 01:44:28;;;;;;;8.20;2.97;;;;;;;15.28;83.02;101144.08;3583770;81;98730;-84
2022/07/09 01:49:29;;;;;;;5.07;2.27;;;;;;;15.24;83.38;101134.14;3574158;81;99297;-84
2022/07/09 01:54:30;;;;;;;7.30;2.90;;;;;;;15.24;83.63;101136.91;3561463;81;98888;-85
2022/07/09 01:59:31;;;;;;;7.63;2.87;;;;;;;15.20;83.92;101133.36;3568391;81;98467;-85
2022/07/09 02:04:32;;;;;;;8.63;3.27;;;;;;;15.17;84.26;101126.61;3587247;78;98738;-85
2022/07/09 02:09:33;;;;;;;4.80;2.37;;;;;;;15.14;84.94;101126.58;3524632;82;98858;-85
2022/07/09 02:14:34;;;;;;;6.05;2.62;;;;;;;15.13;85.32;101130.53;3542270;82;98867;-85
2022/07/09 02:19:35;;;;;;;4.28;2.60;;;;;;;15.04;85.08;101098.24;3527849;81;98951;-84
2022/07/09 02:24:35;;;;;;;5.62;3.08;;;;;;;15.20;85.27;101114.72;3585095;82;98887;-85
2022/07/09 02:29:37;;;;;;;8.73;3.45;;;;;;;15.21;85.39;101109.98;3584557;81;98730;-85
2022/07/09 02:34:38;;;;;;;9.07;3.43;;;;;;;15.18;85.71;101112.14;3566771;81;99125;-85
2022/07/09 02:39:39;;;;;;;8.13;3.53;;;;;;;15.21;85.83;101098.28;3548754;81;98818;-84
2022/07/09 02:44:43;;;;;;;9.38;3.40;;;;;;;15.27;85.89;101095.93;3588124;81;98856;-86
2022/07/09 02:49:43;;;;;;;4.85;3.02;;;;;;;15.25;85.79;101103.25;3572087;81;98786;-84
2022/07/09 02:54:44;;;;;;;6.87;3.10;;;;;;;15.30;85.46;101103.45;3553651;82;98930;-85
2022/07/09 02:59:45;;;;;;;7.10;2.60;;;;;;;15.29;85.78;101108.22;3582362;81;98679;-86
2022/07/09 03:04:46;;;;;;;6.67;3.20;;;;;;;15.31;85.85;101113.38;3583093;81;98642;-86
2022/07/09 03:09:47;;;;;;;7.90;2.70;;;;;;;15.24;85.53;101108.60;3577191;80;98856;-85
2022/07/09 03:14:48;;;;;;;7.77;3.40;;;;;;;15.24;85.83;101105.02;3585483;82;98805;-86
2022/07/09 03:19:49;;;;;;;6.80;3.13;;;;;;;15.22;85.68;101110.17;3517479;82;98922;-85
2022/07/09 03:24:50;;;;;;;6.17;2.80;;;;;;;15.20;85.73;101105.02;3536816;82;99273;-86
2022/07/09 03:29:52;;;;;;;11.83;3.70;;;;;;;15.19;85.85;101103.44;3527900;82;99090;-85
2022/07/09 03:34:53;;;;;;;7.77;3.17;;;;;;;15.19;85.83;101097.89;3588942;81;98840;-86
2022/07/09 03:39:53;;;;;;;6.15;3.22;;;;;;;15.17;85.95;101096.11;3572366;81;98718;-84
2022/07/09 03:44:54;;;;;;;5.78;3.17;;;;;;;15.17;85.84;101092.53;3537911;82;98905;-85
2022/07/09 03:49:55;;;;;;;8.73;4.10;;;;;;;15.19;85.92;101088.18;3572957;81;99274;-85
2022/07/09 03:54:56;;;;;;;8.17;3.67;;;;;;;15.21;85.90;101089.96;3580262;82;99214;-85
2022/07/09 03:59:57;;;;;;;7.67;3.80;;;;;;;15.25;86.19;101080.26;3577818;81;98358;-85
2022/07/09 04:04:58;;;;;;;9.00;3.65;;;;;;;15.21;86.19;101069.77;3543698;82;99212;-86
2022/07/09 04:09:59;;;;;;;7.65;3.75;;;;;;;15.34;85.96;101078.75;3588442;80;98907;-86
2022/07/09 04:15:00;;;;;;;9.10;3.90;;;;;;;15.39;86.03;101072.81;3591337;81;98805;-86
2022/07/09 04:20:02;;;;;;;7.00;4.03;;;;;;;15.35;86.13;101074.78;3578000;81;98923;-85
2022/07/09 04:25:03;;;;;;;7.92;3.62;;;;;;;15.36;86.08;101075.59;3578278;80;98887;-86
2022/07/09 04:30:08;;;;;;;8.23;3.73;;;;;;;15.40;86.14;101075.78;3580384;81;98451;-85
2022/07/09 04:35:09;;;;;;;7.50;3.92;;;;;;;15.45;86.13;101080.14;3580806;80;98715;-84
2022/07/09 04:40:12;;;;;;;8.95;3.70;;;;;;;15.45;86.36;101086.50;3567051;81;98679;-84
2022/07/09 04:45:13;;;;;;;9.00;3.95;;;;;;;15.47;86.30;101082.72;3545294;82;98820;-86
2022/07/09 04:50:14;;;;;;;7.72;3.95;;;;;;;15.52;86.31;101088.47;3576352;81;99249;-85
2022/07/09 04:55:16;;;;;;;7.87;3.75;;;;;;;15.58;86.21;101087.70;3528255;82;98764;-85
2022/07/09 05:00:17;;;;;;;8.58;3.35;;;;;;;15.62;86.38;101076.59;3562480;81;98775;-85
2022/07/09 05:05:23;;;;;;;9.65;4.80;;;;;;;15.69;86.23;101078.78;3588077;79;98647;-82
2022/07/09 05:10:22;;;;;;;8.55;3.62;;;;;;;15.75;86.17;101083.36;3575139;80;98709;-84
2022/07/09 05:15:23;;;;;;;9.38;3.85;;;;;;;15.78;86.21;101085.33;3584850;81;98868;-82
2022/07/09 05:20:24;;;;;;;11.00;4.08;;;;;;;15.92;86.41;101085.34;3583707;81;98862;-88
2022/07/09 05:25:25;;;;;;;8.10;3.80;;;;;;;16.04;86.23;101078.00;3582527;82;99075;-85
2022/07/09 05:30:27;;;;;;;6.00;2.98;;;;;;;16.34;86.38;101086.66;3572475;81;99128;-85
2022/07/09 05:35:28;;;;;;;8.00;2.77;;;;;;;16.63;85.66;101082.06;3501968;83;98504;-85
2022/07/09 05:40:29;;;;;;;7.08;2.55;;;;;;;16.95;84.81;101088.30;3481398;82;98738;-85
2022/07/09 05:45:30;;;;;;;5.80;2.62;;;;;;;17.23;83.92;101081.81;3496484;82;98882;-86
2022/07/09 05:50:31;;;;;;;8.33;2.85;;;;;;;17.39;82.60;101073.19;3540281;81;98862;-85
2022/07/09 05:55:32;;;;;;;7.00;2.65;;;;;;;17.51;81.29;101078.89;3561840;81;98877;-84
2022/07/09 06:00:33;;;;;;;8.20;2.75;;;;;;;17.65;81.32;101074.63;3537526;81;99292;-86
2022/07/09 06:05:34;;;;;;;12.13;3.00;;;;;;;17.89;80.33;101073.03;3585068;81;28695;-83
2022/07/09 06:10:35;;;;;;;8.00;2.83;;;;;;;18.14;79.77;101071.42;3584545;81;99294;-87
2022/07/09 06:15:36;;;;;;;8.13;2.33;;;;;;;18.21;78.87;101068.56;3597349;81;98850;-86
2022/07/09 06:20:37;;;;;;;7.20;3.03;;;;;;;18.32;78.16;101064.47;3519857;82;99177;-87
2022/07/09 06:25:40;;;;;;;7.50;2.60;;;;;;;18.49;76.50;101072.47;3530634;82;98840;-83
2022/07/09 06:30:42;;;;;;;5.20;2.27;;;;;;;18.62;75.48;101069.33;3563825;81;98862;-84
2022/07/09 06:35:43;;;;;;;6.53;2.20;;;;;;;18.79;74.28;101066.34;3577364;81;26064;-84
2022/07/09 06:40:44;;;;;;;4.90;2.40;;;;;;;19.05;72.54;101062.02;3567886;81;98627;-87
2022/07/09 06:45:45;;;;;;;10.70;2.40;;;;;;;19.34;72.92;101064.03;3579714;81;98915;-86
2022/07/09 06:50:46;;;;;;;6.20;1.87;;;;;;;19.79;71.62;101058.95;3567267;81;99594;-85
2022/07/09 06:55:47;;;;;;;5.83;2.90;;;;;;;20.27;68.64;101054.52;3535904;82;98893;-85
2022/07/09 07:00:48;;;;;;;6.07;2.37;;;;;;;20.53;69.19;101043.04;3575207;80;98840;-84
2022/07/09 07:05:49;;;;;;;8.13;1.90;;;;;;;21.16;67.69;101039.73;3578301;81;27132;-85
2022/07/09 07:10:50;;;;;;;10.47;2.27;;;;;;;21.56;67.01;101043.99;3568126;81;98700;-85
2022/07/09 07:15:50;;;;;;;8.93;2.30;;;;;;;21.72;64.44;101040.43;3553226;81;98959;-86
2022/07/09 07:20:51;;;;;;;6.47;2.02;;;;;;;21.98;63.10;101041.58;3531083;82;98830;-84
2022/07/09 07:25:52;;;;;;;7.83;2.00;;;;;;;22.21;62.18;101039.95;3545070;82;98876;-84
2022/07/09 07:30:54;;;;;;;8.45;2.00;;;;;;;22.44;61.85;101043.16;3534584;82;99176;-88
2022/07/09 07:35:55;;;;;;;7.20;2.20;;;;;;;22.52;60.06;101049.55;3476455;83;33204;-83
2022/07/09 07:40:56;;;;;;;7.72;2.40;;;;;;;22.33;59.72;101051.04;3517875;82;99021;-83
2022/07/09 07:45:57;;;;;;;7.62;3.10;;;;;;;22.50;59.28;101047.78;3523365;82;98709;-84
2022/07/09 07:50:58;;;;;;;6.03;2.20;;;;;;;22.49;58.69;101052.43;3532370;80;98877;-86
2022/07/09 07:56:05;;;;;;;6.60;2.35;;;;;;;22.34;58.24;101053.41;3527019;82;98818;-94
2022/07/09 08:01:06;;;;;;;6.22;2.40;;;;;;;22.54;57.86;101052.69;3528729;82;99005;-88
2022/07/09 08:06:07;;;;;;;6.25;2.37;;;;;;;22.06;56.47;101054.80;3538214;82;33228;-90
2022/07/09 08:11:08;;;;;;;8.15;2.22;;;;;;;21.69;56.86;101066.53;3530747;82;98695;-91
2022/07/09 08:16:09;;;;;;;7.62;2.75;;;;;;;21.70;56.68;101061.88;3554424;81;99079;-87
2022/07/09 08:21:10;;;;;;;8.13;2.92;;;;;;;22.03;57.58;101054.27;3567056;81;98796;-89
2022/07/09 08:26:11;;;;;;;8.35;2.22;;;;;;;22.33;56.29;101051.84;3567430;81;99330;-88
2022/07/09 08:31:14;;;;;;;7.35;2.65;;;;;;;22.37;55.14;101055.95;3568074;81;99228;-86
2022/07/09 08:36:15;;;;;;;8.08;2.20;;;;;;;22.57;56.02;101056.63;3579374;81;33331;-92
2022/07/09 08:41:23;;;;;;;3.72;1.60;;;;;;;22.38;54.09;101049.10;3581169;82;98921;-89
2022/07/09 08:46:22;;;;;;;6.62;1.98;;;;;;;22.25;54.22;101042.06;3571005;81;98658;-91
2022/07/09 08:51:24;;;;;;;5.53;1.70;;;;;;;22.18;54.06;101031.64;3584945;81;98024;-91
2022/07/09 08:56:25;;;;;;;5.30;1.90;;;;;;;22.24;54.43;101046.70;3572529;79;98870;-86
2022/07/09 09:01:27;;;;;;;6.87;2.17;;;;;;;21.88;54.17;101040.42;3581797;81;98901;-88
2022/07/09 09:06:28;;;;;;;6.57;1.73;;;;;;;21.80;54.57;101041.84;3560347;81;101431;-89
2022/07/09 09:11:31;;;;;;;4.70;2.02;;;;;;;21.68;54.56;101039.12;3582094;81;98974;-89
2022/07/09 09:16:37;;;;;;;9.25;2.75;;;;;;;21.96;55.85;101032.03;3542390;80;98815;-84
2022/07/09 09:21:39;;;;;;;6.72;2.00;;;;;;;22.53;55.92;101038.50;3543234;82;99129;-87
2022/07/09 09:26:39;;;;;;;6.72;2.00;;;;;;;22.89;55.05;101020.79;3546409;81;98956;-89
2022/07/09 09:31:40;;;;;;;4.75;1.72;;;;;;;23.38;55.25;101024.91;3536223;81;99123;-87
2022/07/09 09:36:50;;;;;;;6.87;1.80;;;;;;;23.67;53.54;101031.20;3634620;80;98779;-90
2022/07/09 09:42:00;;;;;;;4.67;1.70;;;;;;;23.85;52.59;101028.58;3570468;82;25926;-88
2022/07/09 09:47:01;;;;;;;4.10;1.98;;;;;;;23.98;52.28;101008.90;3631241;79;99409;-87
2022/07/09 09:52:08;;;;;;;11.60;2.47;;;;;;;24.02;51.59;101015.96;3642813;80;98696;-88
2022/07/09 09:57:13;;;;;;;5.28;1.95;;;;;;;24.24;52.13;101012.57;3636792;79;98985;-91
2022/07/09 10:02:14;;;;;;;7.70;2.47;;;;;;;24.46;51.57;101007.74;3640573;78;98770;-92
2022/07/09 10:07:16;;;;;;;7.92;1.85;;;;;;;24.58;50.24;101018.81;3561374;81;98586;-88
2022/07/09 10:12:31;;;;;;;5.28;1.85;;;;;;;24.50;50.43;101007.00;3569573;81;34313;-94
2022/07/09 10:17:39;;;;;;;7.92;1.80;;;;;;;24.75;49.63;101006.87;3511041;83;98541;-92
2022/07/09 10:22:48;;;;;;;8.43;2.33;;;;;;;25.01;49.48;100994.20;3502861;83;98869;-83
2022/07/09 10:27:49;;;;;;;6.50;1.65;;;;;;;25.14;48.92;100997.72;3581094;81;98462;-88
2022/07/09 10:33:10;;;;;;;9.18;4.03;;;;;;;25.21;48.82;100996.02;3561876;81;97944;-87
2022/07/09 10:38:13;;;;;;;4.70;1.82;;;;;;;25.29;48.40;101002.96;3546538;82;98937;-95
2022/07/09 10:43:14;;;;;;;6.10;2.87;;;;;;;25.58;48.93;100994.94;3561713;81;99277;-93
2022/07/09 10:48:16;;;;;;;6.78;1.80;;;;;;;25.69;48.23;101000.13;3556158;81;98512;-84
2022/07/09 10:53:17;;;;;;;7.90;2.12;;;;;;;25.38;46.66;100989.53;3554527;81;98692;-93
2022/07/09 10:58:20;;;;;;;5.80;1.80;;;;;;;25.08;46.70;100999.58;3554445;82;99027;-89
2022/07/09 11:03:30;;;;;;;10.50;3.25;;;;;;;24.87;47.26;100992.56;3546345;81;99294;-94
2022/07/09 11:08:32;;;;;;;7.28;2.40;;;;;;;24.91;48.25;100984.77;3566930;79;99036;-95
2022/07/09 11:13:34;;;;;;;4.63;1.80;;;;;;;25.05;47.52;100991.23;3585358;80;98046;-95
2022/07/09 11:18:34;;;;;;;6.22;2.08;;;;;;;24.94;48.05;100984.62;3582277;79;98772;-92
2022/07/09 11:23:35;;;;;;;6.70;3.08;;;;;;;24.93;47.04;100988.70;3536073;83;33254;-93
2022/07/09 11:28:39;;;;;;;6.10;1.98;;;;;;;24.68;47.48;100976.82;3579524;80;99091;-91
2022/07/09 11:38:59;;;;;;;8.38;2.10;;;;;;;24.41;47.06;100987.22;3514901;79;98712;-78
2022/07/09 11:44:00;;;;;;;7.95;3.02;;;;;;;24.26;47.35;100982.58;3492050;81;98893;-79
2022/07/09 11:49:01;;;;;;;6.92;1.70;;;;;;;23.74;48.06;100983.17;3478441;82;98796;-79
2022/07/09 11:54:03;;;;;;;6.05;1.90;;;;;;;23.52;48.31;100985.13;3484078;83;32490;-80
2022/07/09 11:59:04;;;;;;;4.87;1.63;;;;;;;23.35;49.93;100975.25;3478540;82;99049;-79
2022/07/09 12:04:06;;;;;;;6.37;1.55;;;;;;;23.47;49.75;100968.83;3476994;83;98946;-79
2022/07/09 12:09:08;;;;;;;4.17;1.37;;;;;;;23.70;50.58;100971.25;3421905;83;99035;-79
2022/07/09 12:14:10;;;;;;;5.33;1.47;;;;;;;24.21;51.09;100962.86;3488747;83;98118;-81
2022/07/09 12:19:11;;;;;;;6.70;1.57;;;;;;;24.73;49.94;100962.92;3453514;83;98456;-81
2022/07/09 12:24:12;;;;;;;5.55;1.80;;;;;;;25.09;49.37;100949.64;3481682;83;34052;-79
2022/07/09 12:29:13;;;;;;;7.45;1.80;;;;;;;25.50;49.38;100940.09;3474422;82;99106;-80
2022/07/09 12:34:15;;;;;;;2.55;1.40;;;;;;;25.87;48.99;100933.87;3486124;81;98998;-81
2022/07/09 12:39:16;;;;;;;4.75;1.72;;;;;;;26.36;47.44;100920.39;3493150;83;98796;-80
2022/07/09 12:44:17;;;;;;;3.67;1.37;;;;;;;26.61;46.41;100911.59;3507516;83;98364;-82
2022/07/09 12:49:18;;;;;;;2.90;1.07;;;;;;;26.73;44.12;100909.99;3488095;82;98806;-80
2022/07/09 12:54:19;;;;;;;2.80;1.10;;;;;;;26.92;45.06;100904.41;3501535;83;33266;-80
2022/07/09 12:59:21;;;;;;;1.45;1.00;;;;;;;26.93;44.22;100896.11;3497159;83;99105;-81
2022/07/09 13:04:22;;;;;;;4.87;1.00;;;;;;;26.92;43.90;100894.52;3500554;82;98703;-78
2022/07/09 13:09:23;;;;;;;3.20;1.12;;;;;;;26.77;43.85;100882.98;3499281;83;99466;-79
2022/07/09 13:14:24;;;;;;;3.42;1.02;;;;;;;26.82;43.33;100870.39;3514673;83;98840;-81
2022/07/09 13:19:25;;;;;;;4.87;1.10;;;;;;;26.78;42.94;100852.06;3470961;83;99056;-78
2022/07/09 13:24:26;;;;;;;4.42;1.37;;;;;;;26.80;42.71;100853.16;3502470;83;33269;-79
2022/07/09 13:29:27;;;;;;;3.60;1.50;;;;;;;26.99;43.86;100851.03;3514040;82;98792;-79
2022/07/09 13:34:29;;;;;;;5.78;1.55;;;;;;;27.08;43.61;100834.80;3494808;83;98834;-82
2022/07/09 13:39:31;;;;;;;3.33;1.20;;;;;;;27.06;42.79;100835.12;3472288;81;98868;-80
2022/07/09 13:44:32;;;;;;;6.10;1.57;;;;;;;27.10;43.68;100831.50;3505789;80;98891;-79
2022/07/09 13:49:33;;;;;;;2.85;1.10;;;;;;;27.16;42.16;100815.44;3495671;82;98958;-79
2022/07/09 13:54:34;;;;;;;5.58;1.42;;;;;;;26.93;43.43;100811.36;3513590;83;33215;-81
2022/07/09 13:59:35;;;;;;;3.83;1.15;;;;;;;27.10;43.36;100801.21;3505321;83;98680;-80
2022/07/09 14:04:37;;;;;;;3.92;1.57;;;;;;;27.10;43.15;100799.00;3508428;83;98604;-80
2022/07/09 14:09:37;;;;;;;4.92;1.40;;;;;;;27.07;42.16;100799.33;3496373;83;98940;-81
2022/07/09 14:14:39;;;;;;;4.30;1.47;;;;;;;26.59;42.67;100799.13;3494672;83;99223;-78
2022/07/09 14:19:40;;;;;;;2.55;1.60;;;;;;;26.04;43.53;100794.13;3493900;81;98826;-80
2022/07/09 14:24:43;;;;;;;2.98;1.15;;;;;;;25.68;44.00;100801.98;3504429;81;99404;-78
2022/07/09 14:29:45;;;;;;;3.47;1.42;;;;;;;25.38;44.69;100791.64;3496810;81;98132;-82
2022/07/09 14:34:46;;;;;;;4.97;1.80;;;;;;;25.04;45.42;100796.13;3499036;80;99085;-80
2022/07/09 14:39:47;;;;;;;3.60;1.67;;;;;;;24.81;46.73;100796.70;3511498;82;99113;-80
2022/07/09 14:44:50;;;;;;;3.37;1.30;;;;;;;24.48;47.35;100794.83;3531896;82;99057;-79
2022/07/09 14:49:54;;;;;;;4.90;2.10;;;;;;;24.21;48.74;100799.71;3522838;81;98406;-79
2022/07/09 14:54:54;;;;;;;3.20;1.32;;;;;;;23.99;50.17;100799.57;3536240;80;99146;-81
2022/07/09 14:59:55;;;;;;;2.77;1.42;;;;;;;23.90;50.88;100781.23;3535768;82;98453;-83
2022/07/09 15:04:56;;;;;;;2.67;1.30;;;;;;;23.87;50.46;100778.67;3514753;82;99323;-82
2022/07/09 15:09:57;;;;;;;4.58;1.60;;;;;;;23.66;51.59;100769.63;3491342;82;98991;-82
2022/07/09 15:14:59;;;;;;;2.60;1.10;;;;;;;23.38;51.71;100733.38;3523029;82;98045;-80
2022/07/09 15:20:00;;;;;;;3.08;1.70;;;;;;;23.23;52.24;100761.80;3522307;81;99648;-80
2022/07/09 15:25:04;;;;;;;3.17;1.30;;;;;;;22.96;52.65;100760.12;3526172;82;99098;-83
2022/07/09 15:30:06;;;;;;;6.03;1.55;;;;;;;22.73;53.25;100754.26;3523321;82;98833;-81
2022/07/09 15:35:11;;;;;;;2.65;1.30;;;;;;;22.58;54.07;100769.22;3544631;80;98639;-82
2022/07/09 15:40:15;;;;;;;2.30;1.12;;;;;;;22.35;54.79;100753.48;3522901;80;99004;-82
2022/07/09 15:45:18;;;;;;;11.20;2.00;;;;;;;22.32;55.43;100762.01;3523976;82;99107;-82
2022/07/09 15:50:20;;;;;;;2.90;1.40;;;;;;;22.28;55.79;100751.55;3516924;81;98936;-78
2022/07/09 15:55:21;;;;;;;2.42;1.10;;;;;;;22.11;56.28;100745.24;3543475;82;99254;-81
2022/07/09 16:00:25;;;;;;;3.50;1.20;;;;;;;22.01;56.94;100740.74;3537232;80;98716;-80
2022/07/09 16:05:26;;;;;;;2.35;1.27;;;;;;;22.11;57.06;100734.03;3519055;82;98972;-84
2022/07/09 16:10:28;;;;;;;3.85;1.50;;;;;;;21.93;57.00;100743.61;3538322;82;98675;-84
2022/07/09 16:15:30;;;;;;;3.92;1.15;;;;;;;21.62;57.49;100741.09;3552573;80;98074;-83
2022/07/09 16:20:31;;;;;;;2.40;1.50;;;;;;;21.39;58.14;100731.56;3555058;80;98876;-81
2022/07/09 16:25:32;;;;;;;3.30;1.60;;;;;;;21.23;58.75;100730.81;3525752;82;99159;-82
2022/07/09 16:30:33;;;;;;;1.70;1.30;;;;;;;21.18;59.08;100725.75;3554943;82;98680;-81
2022/07/09 16:35:34;;;;;;;4.72;1.70;;;;;;;21.11;59.43;100720.36;3532394;79;98863;-81
2022/07/09 16:40:38;;;;;;;2.42;1.02;;;;;;;21.03;60.06;100703.59;3548845;82;98909;-81
2022/07/09 16:45:41;;;;;;;1.77;1.27;;;;;;;21.04;60.35;100702.36;3558143;81;98132;-80
2022/07/09 16:50:44;;;;;;;2.47;1.70;;;;;;;21.15;60.69;100695.86;3540565;81;99093;-81
2022/07/09 16:55:45;;;;;;;5.55;1.67;;;;;;;21.16;60.93;100688.42;3563951;81;98819;-82
2022/07/09 17:00:46;;;;;;;2.40;1.52;;;;;;;21.10;61.15;100690.17;3530056;81;99160;-81
2022/07/09 17:05:47;;;;;;;4.00;1.82;;;;;;;21.09;61.44;100673.84;3533980;82;31696;-81
2022/07/09 17:10:48;;;;;;;3.95;1.65;;;;;;;21.08;61.95;100675.84;3530060;82;98704;-81
2022/07/09 17:15:49;;;;;;;3.42;1.35;;;;;;;21.09;61.68;100679.44;3532605;82;98059;-80
2022/07/09 17:20:52;;;;;;;5.95;1.62;;;;;;;21.07;61.68;100677.08;3536614;81;98337;-81
2022/07/09 17:25:53;;;;;;;4.53;1.70;;;;;;;21.00;61.59;100675.88;3548358;81;98366;-81
2022/07/09 17:30:54;;;;;;;4.95;1.60;;;;;;;20.83;61.47;100666.53;3546087;81;99201;-80
2022/07/09 17:35:55;;;;;;;2.45;1.35;;;;;;;20.69;61.60;100671.09;3550034;82;31451;-81
2022/07/09 17:40:57;;;;;;;3.17;1.40;;;;;;;20.57;61.65;100667.61;3534384;80;98369;-80
2022/07/09 17:45:58;;;;;;;3.40;1.55;;;;;;;20.46;62.48;100660.11;3542390;82;98933;-81
2022/07/09 17:50:59;;;;;;;1.98;1.32;;;;;;;20.29;62.96;100662.14;3512250;80;98827;-82
2022/07/09 17:56:00;;;;;;;3.12;1.40;;;;;;;20.17;63.38;100661.41;3547558;82;99207;-82
2022/07/09 18:01:01;;;;;;;1.82;1.10;;;;;;;20.09;63.65;100651.65;3540816;80;98293;-83
2022/07/09 18:06:03;;;;;;;3.22;1.40;;;;;;;19.93;64.04;100643.81;3554481;82;30225;-82
2022/07/09 18:11:05;;;;;;;4.78;1.70;;;;;;;19.84;64.41;100644.42;3543661;81;98581;-83
2022/07/09 18:16:06;;;;;;;2.40;1.22;;;;;;;19.73;65.31;100650.86;3560482;82;98343;-80
2022/07/09 18:21:08;;;;;;;4.65;1.77;;;;;;;19.68;65.35;100650.59;3539165;80;98455;-84
2022/07/09 18:26:09;;;;;;;4.22;1.30;;;;;;;19.62;66.23;100647.52;3513804;80;98818;-82
2022/07/09 18:31:10;;;;;;;4.97;1.70;;;;;;;19.48;66.57;100651.23;3542739;82;98584;-81
2022/07/09 18:36:12;;;;;;;6.55;1.85;;;;;;;19.30;66.90;100639.67;3542539;82;30809;-82
2022/07/09 18:41:13;;;;;;;4.67;1.42;;;;;;;19.21;67.05;100644.44;3549709;80;98264;-82
2022/07/09 18:46:14;;;;;;;4.35;1.90;;;;;;;19.04;66.66;100646.15;3533332;82;98815;-82
2022/07/09 18:51:15;;;;;;;4.83;1.70;;;;;;;18.91;66.32;100650.17;3537252;80;98308;-82
2022/07/09 18:56:16;;;;;;;8.28;3.22;;;;;;;18.78;65.78;100651.23;3546972;82;99145;-82
2022/07/09 19:01:17;;;;;;;3.83;1.85;;;;;;;18.61;65.87;100657.33;3550829;80;98890;-81
2022/07/09 19:06:18;;;;;;;4.03;1.67;;;;;;;18.48;65.62;100649.38;3556886;81;98898;-81
2022/07/09 19:11:19;;;;;;;2.45;1.27;;;;;;;18.30;66.11;100650.86;3561838;81;98743;-82
2022/07/09 19:16:22;;;;;;;1.70;0.95;;;;;;;18.21;66.79;100645.83;3517826;80;98792;-81
2022/07/09 19:21:23;;;;;;;3.57;1.50;;;;;;;18.17;67.16;100668.00;3549703;82;99257;-82
2022/07/09 19:26:25;;;;;;;5.37;1.65;;;;;;;18.15;66.86;100664.86;3538281;80;99232;-83
2022/07/09 19:36:46;;;;;;;2.85;1.27;;;;;;;17.94;67.80;100673.55;3529213;81;99163;-81
2022/07/09 19:41:47;;;;;;;2.17;1.30;;;;;;;17.78;68.77;100661.65;3549613;82;29751;-80
2022/07/09 19:46:48;;;;;;;2.17;1.15;;;;;;;17.75;69.71;100664.46;3548989;81;98980;-82
2022/07/09 19:51:49;;;;;;;3.47;1.32;;;;;;;17.67;71.02;100665.78;3553100;82;99166;-82
2022/07/09 19:56:50;;;;;;;2.65;1.20;;;;;;;17.39;72.22;100666.16;3554397;80;98935;-82
2022/07/09 20:01:51;;;;;;;1.57;1.02;;;;;;;17.24;73.39;100658.57;3559035;82;98471;-82
2022/07/09 20:06:52;;;;;;;2.77;1.15;;;;;;;17.12;73.96;100656.93;3540820;80;98900;-82
2022/07/09 20:11:53;;;;;;;3.95;1.77;;;;;;;17.09;74.33;100657.75;3548876;81;26228;-82
2022/07/09 20:16:54;;;;;;;2.90;1.47;;;;;;;16.99;75.16;100651.70;3549978;80;99037;-81
2022/07/09 20:21:55;;;;;;;5.70;2.15;;;;;;;16.98;75.51;100647.34;3543064;81;99219;-81
2022/07/09 20:26:56;;;;;;;8.27;3.37;;;;;;;16.91;75.86;100659.36;3551838;80;99244;-81
2022/07/09 20:31:58;;;;;;;6.15;1.90;;;;;;;16.91;76.66;100664.12;3548115;80;98884;-81
2022/07/09 20:36:59;;;;;;;5.30;2.17;;;;;;;16.96;76.83;100666.45;3551699;81;98877;-81
2022/07/09 20:42:00;;;;;;;6.72;2.05;;;;;;;16.96;76.91;100646.37;3540369;81;34927;-80
2022/07/09 20:47:01;;;;;;;5.62;1.90;;;;;;;16.98;77.70;100649.54;3523641;82;99038;-80
2022/07/09 20:52:03;;;;;;;1.95;1.20;;;;;;;17.04;77.73;100646.48;3534412;82;98300;-82
2022/07/09 20:57:04;;;;;;;4.53;1.92;;;;;;;17.12;78.03;100649.97;3504832;82;99601;-82
2022/07/09 21:02:06;;;;;;;4.55;1.90;;;;;;;17.16;78.06;100644.55;3537034;82;98525;-82
2022/07/09 21:07:07;;;;;;;6.40;2.40;;;;;;;17.21;78.13;100651.64;3524665;82;99046;-82
2022/07/09 21:12:08;;;;;;;3.08;1.67;;;;;;;17.26;78.13;100658.13;3535360;82;33872;-81
2022/07/09 21:22:30;;;;;;;5.30;1.62;;;;;;;17.30;78.21;100660.27;3533866;82;98759;-82
2022/07/09 21:27:32;;;;;;;2.87;1.60;;;;;;;17.31;78.16;100659.06;3536621;81;99360;-81
2022/07/09 21:32:33;;;;;;;2.62;1.60;;;;;;;17.31;78.19;100659.86;3549898;81;98831;-81
2022/07/09 21:37:34;;;;;;;6.40;1.52;;;;;;;17.31;78.17;100650.72;3535167;82;98753;-81
2022/07/09 21:42:35;;;;;;;2.62;1.55;;;;;;;17.26;78.36;100658.13;3558194;81;34055;-80
2022/07/09 21:47:36;;;;;;;8.55;2.05;;;;;;;17.24;78.29;100654.98;3548643;82;98483;-81
2022/07/09 21:52:37;;;;;;;4.45;2.08;;;;;;;17.15;78.76;100649.93;3541429;82;98628;-81
2022/07/09 21:57:38;;;;;;;3.83;1.77;;;;;;;17.12;79.23;100649.97;3545246;79;98446;-82
2022/07/09 22:02:40;;;;;;;6.53;1.98;;;;;;;17.09;79.21;100651.59;3570920;79;98068;-82
2022/07/09 22:07:41;;;;;;;7.58;2.65;;;;;;;17.08;79.58;100653.39;3541600;81;98485;-82
2022/07/09 22:12:42;;;;;;;8.75;2.55;;;;;;;17.09;79.68;100656.36;3550034;81;99197;-82
2022/07/09 22:17:42;;;;;;;6.28;2.42;;;;;;;16.96;80.67;100650.53;3526550;80;98829;-82
2022/07/09 22:22:44;;;;;;;4.72;2.42;;;;;;;16.65;81.46;100626.67;3557600;80;97874;-82
2022/07/09 22:27:45;;;;;;;8.30;3.08;;;;;;;16.62;82.03;100646.94;3541770;81;99246;-82
2022/07/09 22:32:46;;;;;;;7.45;2.80;;;;;;;16.55;82.88;100647.61;3555145;82;99387;-82
2022/07/09 22:37:47;;;;;;;5.92;2.15;;;;;;;16.46;82.86;100651.48;3580541;79;98891;-82
2022/07/09 22:42:48;;;;;;;6.03;2.50;;;;;;;16.49;82.72;100645.89;3562808;79;98020;-82
2022/07/09 22:47:49;;;;;;;6.95;3.00;;;;;;;16.44;83.27;100643.55;3565209;81;98861;-82
2022/07/09 22:52:50;;;;;;;7.70;2.77;;;;;;;16.39;83.43;100643.99;3573901;81;97817;-82
2022/07/09 22:57:53;;;;;;;7.13;2.60;;;;;;;16.32;83.73;100639.06;3570550;79;98773;-82
2022/07/09 23:02:55;;;;;;;6.50;2.60;;;;;;;16.30;84.19;100645.02;3575072;79;97983;-82
2022/07/09 23:13:15;;;;;;;4.67;2.40;;;;;;;16.08;85.33;100649.17;3559497;81;99278;-83
2022/07/09 23:18:16;;;;;;;4.35;2.30;;;;;;;16.07;85.51;100645.44;3558014;81;98754;-82
2022/07/09 23:23:17;;;;;;;6.47;2.12;;;;;;;16.15;85.53;100642.20;3556666;81;99147;-82
2022/07/09 23:28:18;;;;;;;6.47;2.22;;;;;;;16.21;85.50;100638.37;3567308;81;98411;-82
2022/07/09 23:33:19;;;;;;;5.10;2.22;;;;;;;16.23;85.38;100635.95;3575806;80;98914;-82
2022/07/09 23:38:20;;;;;;;3.92;1.65;;;;;;;16.20;85.21;100637.59;3555119;81;98878;-83
2022/07/09 23:43:21;;;;;;;7.50;1.87;;;;;;;16.22;84.96;100633.80;3533033;82;98967;-82